Kezdőlap
METAR-TAF:

METAR-TAF

Repülőterek :

Cephalonia, Görögország

földrajzi szélesség: 38-07N, földrajzi hosszúság: 020-30E, magasság: 19 m

Jelenlegi meteorológiai megfigyelések

A jelentés 2 órával és 50 perccel ezelõtt készült, 17:50 UTC
Keleti szél 5 kt
Hőmérséklet 13°C
Páratartalom 82%
Légköri nyomás 1022 hPa
Látótávolság 10 km, vagy több
Szórványos felhőzet 1800 lábon
Szórványos felhőzet 7000 lábon

METAR: LGKF 111750Z 09005KT 9999 SCT018 SCT070 13/10 Q1022

Idő: 22:40 (20:40 UTC)

Előrejelzés

A jelentés 40 perccel ezelõtt készült, 20:00 UTC
Az előrejelzés 11-én 21 óra UTC és 12-én 06 óra UTC között érvényes
Dél-délkeleti szél 10 kt
Látótávolság 10 km, vagy több
Szórványos felhőzet 2000 lábon
Szórványos felhőzet 8000 lábon

TAF: LGKF 112000Z 1121/1206 16010KT 9999 SCT020 SCT080

Meteorológiai megfigyelések és előrejelzések több, mint 4000 repülőtéren (METAR és TAF jelentéseket).

A térképen piros és sárga pontok jelzik az elérhető meteorológiai állomásokat.

Mozgassa az egeret a pont fölött, hogy megjelenjen az állomás neve.

Azután kattintson az időjárási megfigyelések és előrejelzések megtekintéséhez.

A térkép megváltoztatása: kattintson a fekete keresztel jelölt zöld gombra ráközelítéshez, a vonallal jelölt zöld gombra távolításhoz, vagy a zöld nyilakra a szomszédos térképek eléréséhez.


METAR-TAF: